createdAt,value
2018-11-07T15:40:50.659Z,99.24
2018-11-07T15:41:50.501Z,99.43
2018-11-07T15:43:44.869Z,98.66
2018-11-07T15:44:44.853Z,98.52
2018-11-07T15:46:39.217Z,98.52
2018-11-07T15:47:39.219Z,98.28
2018-11-07T15:49:34.625Z,98.14
2018-11-07T15:50:33.568Z,98.04
2018-11-07T15:52:27.948Z,97.56
2018-11-07T15:53:27.930Z,97.28
2018-11-07T15:55:22.302Z,96.61
2018-11-07T15:56:22.295Z,97.28
2018-11-07T15:58:16.725Z,96.51
2018-11-07T15:59:16.657Z,96.03
2018-11-07T16:01:11.030Z,96.32
2018-11-07T16:02:11.044Z,96.42
2018-11-07T16:04:07.401Z,95.84
2018-11-07T16:05:06.234Z,95.65
2018-11-07T16:07:00.619Z,95.84
2018-11-07T16:08:00.618Z,95.94
2018-11-07T16:09:54.985Z,94.93
2018-11-07T16:10:54.976Z,94.93
2018-11-07T16:12:49.350Z,94.84
2018-11-07T16:13:49.424Z,94.17
2018-11-07T16:15:43.712Z,93.79
2018-11-07T16:16:43.705Z,94.26
2018-11-07T16:18:38.189Z,94.17
2018-11-07T16:19:38.070Z,94.26
2018-11-07T16:21:32.469Z,93.69
2018-11-07T16:22:32.435Z,93.98
2018-11-07T16:24:26.873Z,93.60
2018-11-07T16:25:26.792Z,93.02
2018-11-07T16:27:21.157Z,93.21
2018-11-07T16:28:21.173Z,92.83
2018-11-07T16:30:15.524Z,92.74
2018-11-07T16:31:15.522Z,92.74
2018-11-07T16:33:09.897Z,92.21
2018-11-07T16:34:09.890Z,91.97
2018-11-07T16:36:04.406Z,92.30
2018-11-07T16:37:04.277Z,92.50
2018-11-07T16:38:58.634Z,92.21
2018-11-07T16:39:58.628Z,91.93
2018-11-07T16:41:53.062Z,91.54
2018-11-07T16:42:52.993Z,91.25
2018-11-07T16:44:47.379Z,91.74
2018-11-07T16:45:47.375Z,91.45
2018-11-07T16:47:41.824Z,91.25
2018-11-07T16:48:41.939Z,91.93
2018-11-07T16:50:36.221Z,91.06
2018-11-07T16:51:36.100Z,91.45
2018-11-07T16:53:30.510Z,90.68
2018-11-07T16:54:30.461Z,90.68
2018-11-07T16:56:24.902Z,90.59
2018-11-07T16:57:24.832Z,90.88
2018-11-07T16:59:19.215Z,89.92
2018-11-07T17:00:19.202Z,90.11
2018-11-07T17:02:13.571Z,89.87
2018-11-07T17:03:13.564Z,90.01
2018-11-07T17:05:07.942Z,89.87
2018-11-07T17:06:07.933Z,90.16
2018-11-07T17:08:02.425Z,90.06
2018-11-07T17:09:02.347Z,89.87
2018-11-07T17:10:56.719Z,89.49
2018-11-07T17:11:56.755Z,89.39
2018-11-07T17:13:51.162Z,89.11
2018-11-07T17:14:51.083Z,89.49
2018-11-07T17:16:45.452Z,89.68
2018-11-07T17:17:45.443Z,89.20
2018-11-07T17:19:39.828Z,88.73
2018-11-07T17:20:39.854Z,89.11
2018-11-07T17:22:34.216Z,89.01
2018-11-07T17:23:34.186Z,88.73
2018-11-07T17:25:28.619Z,89.01
2018-11-07T17:26:28.668Z,88.82
2018-11-07T17:28:23.501Z,89.20
2018-11-07T17:29:22.951Z,88.11
2018-11-07T17:31:17.373Z,88.40
2018-11-07T17:32:17.283Z,88.11
2018-11-07T17:34:11.726Z,87.82
2018-11-07T17:35:11.636Z,87.82
2018-11-07T17:37:08.070Z,88.11
2018-11-07T17:38:08.039Z,88.01
2018-11-07T17:39:08.011Z,87.82
2018-11-07T17:40:08.020Z,88.01
2018-11-07T17:41:08.039Z,88.20
2018-11-07T17:42:08.997Z,87.44
2018-11-07T17:43:07.976Z,87.44
2018-11-07T17:44:07.972Z,87.44
2018-11-07T17:45:07.970Z,87.25
2018-11-07T17:46:07.972Z,87.35
2018-11-07T17:47:07.963Z,87.06
2018-11-07T17:48:08.093Z,86.87
2018-11-07T17:49:07.960Z,86.87
2018-11-07T17:50:07.952Z,86.87
2018-11-07T17:51:07.949Z,87.06
2018-11-07T17:52:07.946Z,86.96
2018-11-07T17:53:07.946Z,86.49
2018-11-07T17:54:07.939Z,86.49
2018-11-07T17:55:07.937Z,85.58
2018-11-07T17:56:07.935Z,85.72
2018-11-07T17:57:07.933Z,85.63
2018-11-07T17:58:07.934Z,84.82
2018-11-07T17:59:07.929Z,85.01
2018-11-07T18:00:07.919Z,85.01
2018-11-07T18:01:07.928Z,85.25
2018-11-07T18:02:07.911Z,85.58
2018-11-07T18:03:07.909Z,84.92
2018-11-07T18:04:07.905Z,84.82
2018-11-07T18:05:07.905Z,85.49
2018-11-07T18:06:07.897Z,85.58
2018-11-07T18:07:07.900Z,85.21
2018-11-07T18:08:07.890Z,85.39
2018-11-07T18:09:07.885Z,85.58
2018-11-07T18:10:07.885Z,85.39
2018-11-07T18:11:07.881Z,85.39
2018-11-07T18:12:07.878Z,85.30
2018-11-07T18:13:07.875Z,85.11
2018-11-07T18:14:07.869Z,85.49
2018-11-07T18:15:07.868Z,85.87
2018-11-07T18:16:07.865Z,85.77
2018-11-07T18:17:07.863Z,85.97
2018-11-07T18:18:07.857Z,85.01
2018-11-07T18:19:07.893Z,85.58
2018-11-07T18:20:07.847Z,85.97
2018-11-07T18:21:07.845Z,85.49
2018-11-07T18:22:07.843Z,86.16
2018-11-07T18:23:07.835Z,85.87
2018-11-07T18:24:07.880Z,85.97
2018-11-07T18:25:07.828Z,85.77
2018-11-07T18:26:07.824Z,85.21
2018-11-07T18:27:07.888Z,85.68
2018-11-07T18:28:07.852Z,85.49
2018-11-07T18:29:07.817Z,85.01
2018-11-07T18:30:07.809Z,85.45
2018-11-07T18:31:07.810Z,84.88
2018-11-07T18:32:07.816Z,85.35
2018-11-07T18:33:07.797Z,84.88
2018-11-07T18:34:07.800Z,85.16
2018-11-07T18:35:07.830Z,85.16
2018-11-07T18:36:07.788Z,85.25
2018-11-07T18:37:07.786Z,85.25
2018-11-07T18:38:07.779Z,84.01
2018-11-07T18:39:07.775Z,85.06
2018-11-07T18:40:07.775Z,84.69
2018-11-07T18:41:07.817Z,84.20
2018-11-07T18:42:07.773Z,84.11
2018-11-07T18:43:07.852Z,83.35
2018-11-07T18:44:08.786Z,82.40
2018-11-07T18:45:07.750Z,81.92
2018-11-07T18:46:07.751Z,82.30
2018-11-07T18:47:07.801Z,81.82
2018-11-07T18:48:07.740Z,81.63
2018-11-07T18:49:07.750Z,82.11
2018-11-07T18:50:07.801Z,81.63
2018-11-07T18:51:07.846Z,82.11
2018-11-07T18:52:07.730Z,80.30
2018-11-07T18:53:07.721Z,80.30
2018-11-07T18:54:07.727Z,81.63
2018-11-07T18:55:07.715Z,82.20
2018-11-07T18:56:07.707Z,81.92
2018-11-07T18:57:07.705Z,81.54
2018-11-07T18:58:07.697Z,81.63
2018-11-07T18:59:07.714Z,81.73
2018-11-07T19:00:07.689Z,81.44
2018-11-07T19:01:07.778Z,81.44
2018-11-07T19:02:07.681Z,81.92
2018-11-07T19:03:07.677Z,82.11
2018-11-07T19:04:07.672Z,81.92
2018-11-07T19:05:07.665Z,81.54
2018-11-07T19:06:07.663Z,81.25
2018-11-07T19:07:07.663Z,80.58
2018-11-07T19:08:07.655Z,79.88
2018-11-07T19:09:07.650Z,78.73
2018-11-07T19:10:07.645Z,78.86
2018-11-07T19:11:07.640Z,78.64
2018-11-07T19:12:07.634Z,79.49
2018-11-07T19:13:07.694Z,79.11
2018-11-07T19:14:07.631Z,78.67
2018-11-07T19:15:07.623Z,78.73
2018-11-07T19:16:07.617Z,78.25
2018-11-07T19:17:07.622Z,77.97
2018-11-07T19:18:07.609Z,78.92
2018-11-07T19:19:07.605Z,79.49
2018-11-07T19:20:07.610Z,79.02
2018-11-07T19:21:07.627Z,78.92
2018-11-07T19:22:07.590Z,78.06
2018-11-07T19:23:07.589Z,78.06
2018-11-07T19:24:07.584Z,78.06
2018-11-07T19:25:07.580Z,78.44
2018-11-07T19:26:07.629Z,78.16
2018-11-07T19:27:07.635Z,77.97
2018-11-07T19:28:07.566Z,78.06
2018-11-07T19:29:07.559Z,78.92
2018-11-07T19:30:07.551Z,79.59
2018-11-07T19:31:07.552Z,79.68
2018-11-07T19:32:07.543Z,80.16
2018-11-07T19:33:07.656Z,80.26
2018-11-07T19:34:07.661Z,80.26
2018-11-07T19:35:07.524Z,80.07
2018-11-07T19:36:07.529Z,80.26
2018-11-07T19:37:07.515Z,80.44
2018-11-07T19:38:07.517Z,80.26
2018-11-07T19:39:07.511Z,79.97
2018-11-07T19:40:07.530Z,80.73
2018-11-07T19:41:07.501Z,80.92
2018-11-07T19:42:07.627Z,79.97
2018-11-07T19:43:07.510Z,80.35
2018-11-07T19:44:07.529Z,79.49
2018-11-07T19:45:07.485Z,79.78
2018-11-07T19:46:07.670Z,79.40
2018-11-07T19:47:07.615Z,79.40
2018-11-07T19:48:07.470Z,79.68
2018-11-07T19:49:07.469Z,79.49
2018-11-07T19:50:07.535Z,77.69
2018-11-07T19:51:07.457Z,77.59
2018-11-07T19:52:07.456Z,76.92
2018-11-07T19:53:07.444Z,77.40
2018-11-07T19:54:07.443Z,76.54
2018-11-07T19:55:07.490Z,76.73
2018-11-07T19:56:07.434Z,76.73
2018-11-07T19:57:07.428Z,76.44
2018-11-07T19:58:07.421Z,75.96
2018-11-07T19:59:07.420Z,76.64
2018-11-07T20:00:07.446Z,75.59
2018-11-07T20:01:07.414Z,73.68
2018-11-07T20:02:07.402Z,70.63
2018-11-07T20:03:07.462Z,68.82
2018-11-07T20:04:07.394Z,65.77
2018-11-07T20:05:07.389Z,62.91
2018-11-07T20:06:07.390Z,62.62
2018-11-07T20:07:07.376Z,65.20
2018-11-07T20:08:07.473Z,70.82
2018-11-07T20:09:07.367Z,73.49
2018-11-07T20:10:07.381Z,76.06
2018-11-07T20:11:07.395Z,78.35
2018-11-07T20:12:07.354Z,81.12
2018-11-07T20:13:07.348Z,80.73
2018-11-07T20:14:07.343Z,80.83
2018-11-07T20:15:07.345Z,80.54
2018-11-07T20:16:07.495Z,80.26
2018-11-07T20:17:07.373Z,79.55
2018-11-07T20:18:07.330Z,78.12
2018-11-07T20:19:07.321Z,78.50
2018-11-07T20:20:07.311Z,78.03
2018-11-07T20:21:07.309Z,78.69
2018-11-07T20:22:07.319Z,78.88
2018-11-07T20:23:07.355Z,78.69
2018-11-07T20:24:07.304Z,78.88
2018-11-07T20:25:07.296Z,78.59
2018-11-07T20:26:07.285Z,78.50
2018-11-07T20:27:07.280Z,78.22
2018-11-07T20:28:07.275Z,78.59
2018-11-07T20:29:07.275Z,78.59
2018-11-07T20:30:07.267Z,79.64
2018-11-07T20:31:07.261Z,79.64
2018-11-07T20:32:07.305Z,79.46
2018-11-07T20:33:07.257Z,79.55
2018-11-07T20:34:07.249Z,79.55
2018-11-07T20:35:07.240Z,80.60
2018-11-07T20:36:07.327Z,80.31
2018-11-07T20:37:07.328Z,80.60
2018-11-07T20:38:07.227Z,80.69
2018-11-07T20:39:07.221Z,82.21
2018-11-07T20:40:07.240Z,81.46
2018-11-07T20:41:07.211Z,82.03
2018-11-07T20:42:07.200Z,81.84
2018-11-07T20:43:07.201Z,81.84
2018-11-07T20:44:07.194Z,80.69
2018-11-07T20:45:07.229Z,81.36
2018-11-07T20:46:07.188Z,80.60
2018-11-07T20:47:07.180Z,80.98
2018-11-07T20:48:07.174Z,81.93
2018-11-07T20:49:07.294Z,82.31
2018-11-07T20:50:07.161Z,82.21
2018-11-07T20:51:07.156Z,82.03
2018-11-07T20:52:07.153Z,81.74
2018-11-07T20:53:07.146Z,81.26
2018-11-07T20:54:07.139Z,80.79
2018-11-07T20:55:07.137Z,80.31
2018-11-07T20:56:07.150Z,79.36
2018-11-07T20:57:07.127Z,79.55
2018-11-07T20:58:07.122Z,79.74
2018-11-07T20:59:07.122Z,80.12
2018-11-07T21:00:07.111Z,80.60
2018-11-07T21:01:07.119Z,81.17
2018-11-07T21:02:07.098Z,81.84
2018-11-07T21:03:07.095Z,82.69
2018-11-07T21:04:07.086Z,82.79
2018-11-07T21:05:07.084Z,82.84
2018-11-07T21:06:07.080Z,84.12
2018-11-07T21:07:07.075Z,82.89
2018-11-07T21:08:07.073Z,82.75
2018-11-07T21:09:07.101Z,82.41
2018-11-07T21:10:07.105Z,81.84
2018-11-07T21:11:07.057Z,79.99
2018-11-07T21:12:07.049Z,79.41
2018-11-07T21:13:07.042Z,78.85
2018-11-07T21:14:07.038Z,77.89
2018-11-07T21:15:07.034Z,77.80
2018-11-07T21:16:07.028Z,79.13
2018-11-07T21:17:07.022Z,78.85
2018-11-07T21:18:07.024Z,78.08
2018-11-07T21:19:07.011Z,77.03
2018-11-07T21:20:07.005Z,76.65
2018-11-07T21:21:07.002Z,76.56
2018-11-07T21:22:06.995Z,76.08
2018-11-07T21:23:06.997Z,75.79
2018-11-07T21:24:06.986Z,74.84
2018-11-07T21:25:06.983Z,75.79
2018-11-07T21:26:06.974Z,74.84
2018-11-07T21:27:06.989Z,74.75
2018-11-07T21:28:06.962Z,74.75
2018-11-07T21:29:06.957Z,75.70
2018-11-07T21:30:06.953Z,75.51
2018-11-07T21:31:07.051Z,76.08
2018-11-07T21:32:06.944Z,75.79
2018-11-07T21:33:06.934Z,75.70
2018-11-07T21:34:06.930Z,75.42
2018-11-07T21:35:06.956Z,76.84
2018-11-07T21:36:06.918Z,77.80
2018-11-07T21:37:06.914Z,77.80
2018-11-07T21:38:06.903Z,78.75
2018-11-07T21:39:06.903Z,79.32
2018-11-07T21:40:06.896Z,80.36
2018-11-07T21:41:06.891Z,79.70
2018-11-07T21:42:06.886Z,79.80
2018-11-07T21:43:06.962Z,79.03
2018-11-07T21:44:06.877Z,80.36
2018-11-07T21:45:06.874Z,80.18
2018-11-07T21:46:06.864Z,80.36
2018-11-07T21:47:06.884Z,80.36
2018-11-07T21:48:06.863Z,80.46
2018-11-07T21:49:06.848Z,80.75
2018-11-07T21:50:06.842Z,80.27
2018-11-07T21:51:06.837Z,80.65
2018-11-07T21:52:06.831Z,80.27
2018-11-07T21:53:06.824Z,80.55
2018-11-07T21:54:06.816Z,81.03
2018-11-07T21:55:06.813Z,81.79
2018-11-07T21:56:06.814Z,81.70
2018-11-07T21:57:06.803Z,81.98
2018-11-07T21:58:06.796Z,81.70
2018-11-07T21:59:06.795Z,81.51
2018-11-07T22:00:06.783Z,81.79
2018-11-07T22:01:06.780Z,81.70
2018-11-07T22:02:06.775Z,81.79
2018-11-07T22:03:06.781Z,82.18
2018-11-07T22:04:06.772Z,82.93
2018-11-07T22:05:06.760Z,82.93
2018-11-07T22:06:06.756Z,84.17
2018-11-07T22:07:06.753Z,84.36
2018-11-07T22:08:06.740Z,84.46
2018-11-07T22:09:06.742Z,84.65
2018-11-07T22:10:06.733Z,84.65
2018-11-07T22:11:06.730Z,84.84
2018-11-07T22:12:06.722Z,84.84
2018-11-07T22:13:06.724Z,84.75
2018-11-07T22:14:06.716Z,84.84
2018-11-07T22:15:07.548Z,84.46
2018-11-07T22:16:06.706Z,84.46
2018-11-07T22:17:06.697Z,84.46
2018-11-07T22:18:06.690Z,83.70
2018-11-07T22:19:06.694Z,83.70
2018-11-07T22:20:06.684Z,83.03
2018-11-07T22:21:06.677Z,82.46
2018-11-07T22:22:06.668Z,82.93
2018-11-07T22:23:06.672Z,83.03
2018-11-07T22:24:06.707Z,82.75
2018-11-07T22:25:06.653Z,82.37
2018-11-07T22:26:06.652Z,81.32
2018-11-07T22:27:06.644Z,81.41
2018-11-07T22:28:06.639Z,81.79
2018-11-07T22:29:06.633Z,81.79
2018-11-07T22:30:06.624Z,82.18
2018-11-07T22:31:06.622Z,82.18
2018-11-07T22:32:06.612Z,83.03
2018-11-07T22:33:06.607Z,84.36
2018-11-07T22:34:06.607Z,84.65
2018-11-07T22:35:06.596Z,84.65
2018-11-07T22:36:06.592Z,83.89
2018-11-07T22:37:06.588Z,84.17
2018-11-07T22:38:06.580Z,83.98
2018-11-07T22:39:06.576Z,84.27
2018-11-07T22:40:06.571Z,85.03
2018-11-07T22:41:06.563Z,84.61
2018-11-07T22:42:06.558Z,84.75
2018-11-07T22:43:06.563Z,84.80
2018-11-07T22:44:06.548Z,84.61
2018-11-07T22:45:06.552Z,83.75
2018-11-07T22:46:06.537Z,83.85
2018-11-07T22:47:06.536Z,83.61
2018-11-07T22:48:06.524Z,83.61
2018-11-07T22:49:06.519Z,84.80
2018-11-07T22:50:06.519Z,83.85
2018-11-07T22:51:06.504Z,84.04
2018-11-07T22:52:06.503Z,83.56
2018-11-07T22:53:06.499Z,82.32
2018-11-07T22:54:06.490Z,82.32
2018-11-07T22:55:06.487Z,82.61
2018-11-07T22:56:06.481Z,82.61
2018-11-07T22:57:06.473Z,83.09
2018-11-07T22:58:06.505Z,83.94
2018-11-07T22:59:06.463Z,84.61
2018-11-07T23:00:06.467Z,84.89
2018-11-07T23:01:06.452Z,85.85
2018-11-07T23:02:06.446Z,84.70
2018-11-07T23:03:06.444Z,84.70
2018-11-07T23:04:06.440Z,84.80
2018-11-07T23:05:06.427Z,83.94
2018-11-07T23:06:06.424Z,84.61
2018-11-07T23:07:06.421Z,85.66
2018-11-07T23:08:06.411Z,86.22
2018-11-07T23:09:06.403Z,86.22
2018-11-07T23:10:06.405Z,85.75
2018-11-07T23:11:06.402Z,85.56
2018-11-07T23:12:06.393Z,84.80
2018-11-07T23:13:06.382Z,84.80
2018-11-07T23:14:06.377Z,83.85
2018-11-07T23:15:06.370Z,83.75
2018-11-07T23:16:06.364Z,82.70
2018-11-07T23:17:06.360Z,81.66
2018-11-07T23:18:06.353Z,81.76
2018-11-07T23:19:06.363Z,81.66
2018-11-07T23:20:06.345Z,81.76
2018-11-07T23:21:06.335Z,81.76
2018-11-07T23:22:06.356Z,78.71
2018-11-07T23:23:06.337Z,78.42
2018-11-07T23:24:06.320Z,77.19
2018-11-07T23:25:06.314Z,77.19
2018-11-07T23:26:06.307Z,75.57
2018-11-07T23:27:06.308Z,73.89
2018-11-07T23:28:06.295Z,73.10
2018-11-07T23:29:06.287Z,72.85
2018-11-07T23:30:06.724Z,71.03
2018-11-07T23:31:06.279Z,71.13
2018-11-07T23:32:06.274Z,70.94
2018-11-07T23:33:06.268Z,71.61
2018-11-07T23:34:06.722Z,70.37
2018-11-07T23:35:07.057Z,70.65
2018-11-07T23:36:06.259Z,70.18
2018-11-07T23:37:06.245Z,69.99
2018-11-07T23:38:06.241Z,69.89
2018-11-07T23:39:06.234Z,69.99
2018-11-07T23:40:06.227Z,70.18
2018-11-07T23:41:06.221Z,69.04
2018-11-07T23:42:06.214Z,68.84
2018-11-07T23:43:06.209Z,69.32
2018-11-07T23:44:06.207Z,69.13
2018-11-07T23:45:06.193Z,69.13
2018-11-07T23:46:06.192Z,68.94
2018-11-07T23:47:06.186Z,68.75
2018-11-07T23:48:06.182Z,68.65
2018-11-07T23:49:06.175Z,68.75
2018-11-07T23:50:06.168Z,68.65
2018-11-07T23:51:06.166Z,68.37
2018-11-07T23:52:06.160Z,67.41
2018-11-07T23:53:06.149Z,67.51
2018-11-07T23:54:06.144Z,67.51
2018-11-07T23:55:06.139Z,67.51
2018-11-07T23:56:06.135Z,67.41
2018-11-07T23:57:06.129Z,68.46
2018-11-07T23:58:06.127Z,68.75
2018-11-07T23:59:06.116Z,68.46
